PWSweather.com
Personal Weather Stations
Station Observations
ALLANTONFL
Allanton, Panama City, FL 32404

AllantonPanama City, FL 32404

Lat: 30.036, Lon: -85.48284060000003

Elevation: 11

Station Type: Acurite 5in1

High Low Average
Temperature 61.2°F16.2°C 59.0°F15.0°C 60.3°F15.7°C
Dew Point 56.8°F13.8°C 54.5°F12.5°C 55.4°F13.0°C
Winds 8.3 mph 13.4 kmh Calm Calm 4.0 mph NW6.4 kmh NW
Wind Gusts 8.3 mph13.4 kmh 2.7 mph4.3 kmh 6.0 mph9.7 kmh
Humidity 87% 81% 84%
Pressure 30.15 in1021.0 mb 30.12 in1020.0 mb -
Precipitation 0.00 in0.0 mm - -
Hour Temp Dew Point Humidity Winds Wind Gusts Pressure Precip Precip Rate Daily Precip Total
12:00 AM 61.9°F16.6°C 56.3°F13.5°C 82% 8.9 mph W14.3 kmh W 11.9 mph19.2 kmh 30.06 in1017.9 mb 0.00 in0.0 mm 0.00 in0.0 mm 0.00 in0.0 mm
12:01 AM 61.9°F16.6°C 56.3°F13.5°C 82% 9.9 mph W15.9 kmh W 11.9 mph19.2 kmh 30.06 in1017.9 mb 0.00 in0.0 mm 0.00 in0.0 mm 0.00 in0.0 mm
12:02 AM 61.9°F16.6°C 56.0°F13.3°C 81% 9.4 mph W15.1 kmh W 11.9 mph19.2 kmh 30.06 in1017.9 mb 0.00 in0.0 mm 0.00 in0.0 mm 0.00 in0.0 mm
12:03 AM 61.9°F16.6°C 56.3°F13.5°C 82% 8.3 mph W13.4 kmh W 11.9 mph19.2 kmh 30.06 in1017.9 mb 0.00 in0.0 mm 0.00 in0.0 mm 0.00 in0.0 mm
12:04 AM 61.9°F16.6°C 56.0°F13.3°C 81% 8.3 mph W13.4 kmh W 11.9 mph19.2 kmh 30.06 in1017.9 mb 0.00 in0.0 mm 0.00 in0.0 mm 0.00 in0.0 mm
12:05 AM 61.9°F16.6°C 56.0°F13.3°C 81% 9.9 mph W15.9 kmh W 11.9 mph19.2 kmh 30.06 in1017.9 mb 0.00 in0.0 mm 0.00 in0.0 mm 0.00 in0.0 mm
11:17 PM 60.8°F16.0°C 55.3°F12.9°C 82% 6.3 mph W10.1 kmh W 6.3 mph10.1 kmh 30.15 in1021.0 mb 0.00 in0.0 mm 0.00 in0.0 mm 0.00 in0.0 mm
11:18 PM 60.8°F16.0°C 55.3°F12.9°C 82% 5.8 mph W9.3 kmh W 6.3 mph10.1 kmh 30.15 in1021.0 mb 0.00 in0.0 mm 0.00 in0.0 mm 0.00 in0.0 mm
11:19 PM 61.0°F16.1°C 55.4°F13.0°C 82% 6.3 mph W10.1 kmh W 6.3 mph10.1 kmh 30.15 in1021.0 mb 0.00 in0.0 mm 0.00 in0.0 mm 0.00 in0.0 mm
11:20 PM 61.0°F16.1°C 55.4°F13.0°C 82% 5.8 mph W9.3 kmh W 6.3 mph10.1 kmh 30.15 in1021.0 mb 0.00 in0.0 mm 0.00 in0.0 mm 0.00 in0.0 mm
11:21 PM 61.0°F16.1°C 55.4°F13.0°C 82% 5.8 mph W9.3 kmh W 6.3 mph10.1 kmh 30.15 in1021.0 mb 0.00 in0.0 mm 0.00 in0.0 mm 0.00 in0.0 mm
11:22 PM 61.0°F16.1°C 55.4°F13.0°C 82% 5.8 mph W9.3 kmh W 6.8 mph10.9 kmh 30.15 in1021.0 mb 0.00 in0.0 mm 0.00 in0.0 mm 0.00 in0.0 mm
11:23 PM 61.0°F16.1°C 55.4°F13.0°C 82% 5.8 mph W9.3 kmh W 6.8 mph10.9 kmh 30.15 in1021.0 mb 0.00 in0.0 mm 0.00 in0.0 mm 0.00 in0.0 mm
11:24 PM 61.0°F16.1°C 55.1°F12.8°C 81% 6.3 mph W10.1 kmh W 6.8 mph10.9 kmh 30.15 in1021.0 mb 0.00 in0.0 mm 0.00 in0.0 mm 0.00 in0.0 mm
11:25 PM 61.0°F16.1°C 55.1°F12.8°C 81% 7.3 mph W11.7 kmh W 7.8 mph12.6 kmh 30.15 in1021.0 mb 0.00 in0.0 mm 0.00 in0.0 mm 0.00 in0.0 mm
11:26 PM 61.0°F16.1°C 55.1°F12.8°C 81% 7.3 mph W11.7 kmh W 7.8 mph12.6 kmh 30.15 in1021.0 mb 0.00 in0.0 mm 0.00 in0.0 mm 0.00 in0.0 mm
11:27 PM 61.2°F16.2°C 55.3°F12.9°C 81% 7.8 mph W12.6 kmh W 7.8 mph12.6 kmh 30.15 in1021.0 mb 0.00 in0.0 mm 0.00 in0.0 mm 0.00 in0.0 mm
11:28 PM 61.2°F16.2°C 55.3°F12.9°C 81% 6.3 mph W10.1 kmh W 7.8 mph12.6 kmh 30.15 in1021.0 mb 0.00 in0.0 mm 0.00 in0.0 mm 0.00 in0.0 mm
11:29 PM 61.2°F16.2°C 55.6°F13.1°C 82% 7.3 mph W11.7 kmh W 7.8 mph12.6 kmh 30.15 in1021.0 mb 0.00 in0.0 mm 0.00 in0.0 mm 0.00 in0.0 mm
11:30 PM 61.2°F16.2°C 55.6°F13.1°C 82% 5.8 mph WNW9.3 kmh WNW 7.8 mph12.6 kmh 30.15 in1021.0 mb 0.00 in0.0 mm 0.00 in0.0 mm 0.00 in0.0 mm
11:31 PM 61.2°F16.2°C 55.6°F13.1°C 82% 5.8 mph W9.3 kmh W 7.8 mph12.6 kmh 30.15 in1021.0 mb 0.00 in0.0 mm 0.00 in0.0 mm 0.00 in0.0 mm
11:32 PM 61.2°F16.2°C 55.6°F13.1°C 82% 8.3 mph W13.4 kmh W 8.3 mph13.4 kmh 30.15 in1021.0 mb 0.00 in0.0 mm 0.00 in0.0 mm 0.00 in0.0 mm
11:33 PM 61.2°F16.2°C 55.6°F13.1°C 82% 7.3 mph W11.7 kmh W 8.3 mph13.4 kmh 30.15 in1021.0 mb 0.00 in0.0 mm 0.00 in0.0 mm 0.00 in0.0 mm
11:34 PM 61.2°F16.2°C 55.6°F13.1°C 82% 6.3 mph WNW10.1 kmh WNW 8.3 mph13.4 kmh 30.15 in1021.0 mb 0.00 in0.0 mm 0.00 in0.0 mm 0.00 in0.0 mm
11:35 PM 61.2°F16.2°C 55.6°F13.1°C 82% 6.8 mph W10.9 kmh W 8.3 mph13.4 kmh 30.15 in1021.0 mb 0.00 in0.0 mm 0.00 in0.0 mm 0.00 in0.0 mm
11:36 PM 61.2°F16.2°C 55.6°F13.1°C 82% 6.3 mph W10.1 kmh W 8.3 mph13.4 kmh 30.15 in1021.0 mb 0.00 in0.0 mm 0.00 in0.0 mm 0.00 in0.0 mm
11:37 PM 61.2°F16.2°C 55.6°F13.1°C 82% 5.3 mph W8.5 kmh W 8.3 mph13.4 kmh 30.15 in1021.0 mb 0.00 in0.0 mm 0.00 in0.0 mm 0.00 in0.0 mm
11:38 PM 61.2°F16.2°C 56.0°F13.3°C 83% 5.8 mph W9.3 kmh W 8.3 mph13.4 kmh 30.15 in1021.0 mb 0.00 in0.0 mm 0.00 in0.0 mm 0.00 in0.0 mm
11:39 PM 61.2°F16.2°C 56.0°F13.3°C 83% 5.8 mph W9.3 kmh W 8.3 mph13.4 kmh 30.15 in1021.0 mb 0.00 in0.0 mm 0.00 in0.0 mm 0.00 in0.0 mm
11:40 PM 61.0°F16.1°C 55.4°F13.0°C 82% 5.3 mph W8.5 kmh W 8.3 mph13.4 kmh 30.14 in1020.7 mb 0.00 in0.0 mm 0.00 in0.0 mm 0.00 in0.0 mm
11:41 PM 61.0°F16.1°C 55.4°F13.0°C 82% 6.8 mph W10.9 kmh W 8.3 mph13.4 kmh 30.14 in1020.7 mb 0.00 in0.0 mm 0.00 in0.0 mm 0.00 in0.0 mm
11:42 PM 61.0°F16.1°C 55.4°F13.0°C 82% 5.3 mph WNW8.5 kmh WNW 7.8 mph12.6 kmh 30.14 in1020.7 mb 0.00 in0.0 mm 0.00 in0.0 mm 0.00 in0.0 mm
11:43 PM 61.0°F16.1°C 55.4°F13.0°C 82% 5.8 mph W9.3 kmh W 6.8 mph10.9 kmh 30.14 in1020.7 mb 0.00 in0.0 mm 0.00 in0.0 mm 0.00 in0.0 mm
11:44 PM 61.0°F16.1°C 55.4°F13.0°C 82% 5.3 mph WNW8.5 kmh WNW 6.8 mph10.9 kmh 30.14 in1020.7 mb 0.00 in0.0 mm 0.00 in0.0 mm 0.00 in0.0 mm
11:45 PM 61.0°F16.1°C 55.4°F13.0°C 82% 4.2 mph WNW6.8 kmh WNW 6.8 mph10.9 kmh 30.14 in1020.7 mb 0.00 in0.0 mm 0.00 in0.0 mm 0.00 in0.0 mm
11:46 PM 61.0°F16.1°C 55.4°F13.0°C 82% 4.7 mph WNW7.6 kmh WNW 6.8 mph10.9 kmh 30.14 in1020.7 mb 0.00 in0.0 mm 0.00 in0.0 mm 0.00 in0.0 mm
11:47 PM 61.0°F16.1°C 55.8°F13.2°C 83% 4.7 mph W7.6 kmh W 6.8 mph10.9 kmh 30.14 in1020.7 mb 0.00 in0.0 mm 0.00 in0.0 mm 0.00 in0.0 mm
11:48 PM 61.0°F16.1°C 55.8°F13.2°C 83% 4.2 mph WNW6.8 kmh WNW 6.8 mph10.9 kmh 30.14 in1020.7 mb 0.00 in0.0 mm 0.00 in0.0 mm 0.00 in0.0 mm
11:49 PM 61.0°F16.1°C 55.8°F13.2°C 83% 5.8 mph WNW9.3 kmh WNW 6.8 mph10.9 kmh 30.14 in1020.7 mb 0.00 in0.0 mm 0.00 in0.0 mm 0.00 in0.0 mm
11:50 PM 61.0°F16.1°C 55.8°F13.2°C 83% 4.7 mph WNW7.6 kmh WNW 6.8 mph10.9 kmh 30.14 in1020.7 mb 0.00 in0.0 mm 0.00 in0.0 mm 0.00 in0.0 mm
11:51 PM 61.0°F16.1°C 55.4°F13.0°C 82% 4.7 mph WNW7.6 kmh WNW 6.3 mph10.1 kmh 30.14 in1020.7 mb 0.00 in0.0 mm 0.00 in0.0 mm 0.00 in0.0 mm
11:52 PM 61.0°F16.1°C 55.4°F13.0°C 82% 5.3 mph WNW8.5 kmh WNW 6.3 mph10.1 kmh 30.14 in1020.7 mb 0.00 in0.0 mm 0.00 in0.0 mm 0.00 in0.0 mm
11:53 PM 61.0°F16.1°C 55.8°F13.2°C 83% 3.2 mph NW5.1 kmh NW 5.8 mph9.3 kmh 30.14 in1020.7 mb 0.00 in0.0 mm 0.00 in0.0 mm 0.00 in0.0 mm
11:54 PM 60.8°F16.0°C 55.6°F13.1°C 83% 4.2 mph WNW6.8 kmh WNW 5.8 mph9.3 kmh 30.14 in1020.7 mb 0.00 in0.0 mm 0.00 in0.0 mm 0.00 in0.0 mm
11:55 PM 60.8°F16.0°C 55.6°F13.1°C 83% 2.7 mph NNW4.3 kmh NNW 5.8 mph9.3 kmh 30.14 in1020.7 mb 0.00 in0.0 mm 0.00 in0.0 mm 0.00 in0.0 mm
11:56 PM 60.6°F15.9°C 55.4°F13.0°C 83% 3.2 mph N5.1 kmh N 5.8 mph9.3 kmh 30.14 in1020.7 mb 0.00 in0.0 mm 0.00 in0.0 mm 0.00 in0.0 mm
11:57 PM 60.6°F15.9°C 55.4°F13.0°C 83% 2.7 mph WNW4.3 kmh WNW 5.8 mph9.3 kmh 30.14 in1020.7 mb 0.00 in0.0 mm 0.00 in0.0 mm 0.00 in0.0 mm
11:58 PM 60.4°F15.8°C 55.2°F12.9°C 83% 2.2 mph NNW3.5 kmh NNW 5.8 mph9.3 kmh 30.14 in1020.7 mb 0.00 in0.0 mm 0.00 in0.0 mm 0.00 in0.0 mm
11:59 PM 60.3°F15.7°C 55.1°F12.8°C 83% 2.2 mph NNW3.5 kmh NNW 5.8 mph9.3 kmh 30.14 in1020.7 mb 0.00 in0.0 mm 0.00 in0.0 mm 0.00 in0.0 mm